Time;durP1;ratioP1;P1;durP2;ratioP2;P2;SDS_P1;SDS_P2;PMS_P1;PMS_P2;Temp;Humidity;BMP_temperature;BMP_pressure;BME280_temperature;BME280_humidity;BME280_pressure;Samples;Min_cycle;Max_cycle;Signal;HPM_P1;HPM_P2
2021/09/26 04:01:04;;;;;;;11.80;10.23;;;18.60;99.90;;;;;;5669839;23;20529;-69
2021/09/26 04:03:31;;;;;;;10.43;9.53;;;18.60;99.90;;;;;;4957019;29;20462;-69
2021/09/26 04:05:57;;;;;;;11.00;10.10;;;18.60;99.90;;;;;;4957367;29;20448;-69
2021/09/26 04:08:24;;;;;;;11.40;9.93;;;18.60;99.90;;;;;;4957497;29;20458;-69
2021/09/26 04:10:51;;;;;;;11.17;10.20;;;18.60;99.90;;;;;;4956902;29;20472;-69
2021/09/26 04:13:17;;;;;;;10.90;10.00;;;18.50;99.90;;;;;;4956708;29;20450;-69
2021/09/26 04:15:44;;;;;;;11.43;10.33;;;18.50;99.90;;;;;;4957573;28;20483;-69
2021/09/26 04:18:12;;;;;;;10.97;10.00;;;18.50;99.90;;;;;;4957247;29;20455;-69
2021/09/26 04:20:39;;;;;;;11.00;10.00;;;18.50;99.90;;;;;;4957240;29;20485;-68
2021/09/26 04:23:06;;;;;;;11.03;10.17;;;18.50;99.90;;;;;;4956835;28;20966;-69
2021/09/26 04:25:32;;;;;;;10.70;9.77;;;18.40;99.90;;;;;;4956854;28;20452;-69
2021/09/26 04:27:59;;;;;;;12.37;11.37;;;18.40;99.90;;;;;;4956885;29;20459;-70
2021/09/26 04:30:26;;;;;;;15.17;12.50;;;18.30;99.90;;;;;;4957263;29;20462;-68
2021/09/26 04:32:53;;;;;;;11.20;10.30;;;18.30;99.90;;;;;;4957106;29;20455;-69
2021/09/26 04:35:21;;;;;;;12.43;10.87;;;18.30;99.90;;;;;;4956878;29;20475;-69
2021/09/26 04:37:50;;;;;;;11.37;10.47;;;18.30;99.90;;;;;;4956955;28;20459;-70
2021/09/26 04:40:17;;;;;;;12.60;11.50;;;18.20;99.90;;;;;;4968112;29;20484;-68
2021/09/26 04:42:44;;;;;;;11.70;10.50;;;18.20;99.90;;;;;;4973946;29;20451;-69
2021/09/26 04:45:11;;;;;;;12.77;11.77;;;18.10;99.90;;;;;;4957514;29;20459;-68
2021/09/26 04:47:38;;;;;;;14.10;10.60;;;18.10;99.90;;;;;;4956391;28;20467;-68
2021/09/26 04:50:06;;;;;;;14.00;12.80;;;18.00;99.90;;;;;;4961372;29;20452;-69
2021/09/26 04:52:35;;;;;;;13.83;12.53;;;18.00;99.90;;;;;;4974726;29;20478;-69
2021/09/26 04:55:01;;;;;;;12.43;11.33;;;17.90;99.90;;;;;;4959024;29;20499;-68
2021/09/26 04:57:28;;;;;;;13.30;12.20;;;17.90;99.90;;;;;;4956700;29;20483;-69
2021/09/26 04:59:55;;;;;;;12.73;11.53;;;17.90;99.90;;;;;;4955991;29;20961;-70
2021/09/26 05:02:22;;;;;;;14.10;12.70;;;17.90;99.90;;;;;;4957616;29;20494;-70
2021/09/26 05:04:49;;;;;;;14.53;13.07;;;17.90;99.90;;;;;;4955990;29;20451;-70
2021/09/26 05:07:15;;;;;;;15.03;13.73;;;17.80;99.90;;;;;;4956035;29;20455;-70
2021/09/26 05:09:44;;;;;;;15.03;13.63;;;17.80;99.90;;;;;;4956701;29;20532;-69
2021/09/26 05:12:11;;;;;;;13.83;12.60;;;17.70;99.90;;;;;;4955697;28;20480;-69
2021/09/26 05:14:37;;;;;;;14.40;13.20;;;17.80;99.90;;;;;;4955994;29;20868;-70
2021/09/26 05:17:05;;;;;;;14.77;13.50;;;17.70;99.90;;;;;;4956159;29;20488;-70
2021/09/26 05:19:32;;;;;;;15.93;14.43;;;17.80;99.90;;;;;;4956083;29;20546;-70
2021/09/26 05:21:59;;;;;;;16.00;14.30;;;17.80;99.90;;;;;;4956111;29;20490;-70
2021/09/26 05:24:26;;;;;;;16.00;14.30;;;17.70;99.90;;;;;;4956299;28;20463;-68
2021/09/26 05:26:54;;;;;;;14.77;13.37;;;17.70;99.90;;;;;;4956102;29;20456;-70
2021/09/26 05:29:21;;;;;;;15.27;13.90;;;17.60;99.90;;;;;;4955951;28;20947;-70
2021/09/26 05:31:48;;;;;;;14.23;13.03;;;17.70;99.90;;;;;;4955944;29;20487;-70
2021/09/26 05:34:15;;;;;;;14.90;13.47;;;17.70;99.90;;;;;;4957601;28;20459;-70
2021/09/26 05:36:42;;;;;;;14.80;13.27;;;17.70;99.90;;;;;;4959610;29;20451;-70
2021/09/26 05:39:09;;;;;;;14.17;12.83;;;17.80;99.90;;;;;;4959922;28;20540;-70
2021/09/26 05:41:36;;;;;;;14.60;13.40;;;17.80;99.90;;;;;;4959549;29;20471;-70
2021/09/26 05:44:04;;;;;;;14.17;12.67;;;17.80;99.90;;;;;;4959867;29;20490;-70
2021/09/26 05:46:31;;;;;;;14.60;13.00;;;17.80;99.90;;;;;;4959204;28;20962;-69
2021/09/26 05:48:57;;;;;;;14.73;13.60;;;17.80;99.90;;;;;;4959450;29;20451;-70
2021/09/26 05:51:24;;;;;;;15.47;14.17;;;17.90;99.90;;;;;;4959478;29;20836;-70
2021/09/26 05:53:51;;;;;;;15.93;14.43;;;17.90;99.90;;;;;;4959331;29;20443;-70
2021/09/26 05:56:18;;;;;;;20.13;14.40;;;17.80;99.90;;;;;;4959610;29;20851;-70
2021/09/26 05:58:45;;;;;;;18.40;13.80;;;17.80;99.90;;;;;;4958852;28;20536;-69
2021/09/26 06:01:13;;;;;;;13.80;12.60;;;17.80;99.90;;;;;;4958421;28;20994;-69
2021/09/26 06:03:41;;;;;;;14.60;13.20;;;17.90;99.90;;;;;;4959139;29;20459;-68
2021/09/26 06:06:08;;;;;;;14.83;13.33;;;17.90;99.90;;;;;;4959392;29;20491;-69
2021/09/26 06:08:35;;;;;;;14.00;12.60;;;18.00;99.90;;;;;;4960245;29;20470;-69
2021/09/26 06:11:02;;;;;;;15.10;13.87;;;18.10;99.90;;;;;;4960095;28;20475;-69
2021/09/26 06:13:28;;;;;;;15.03;13.73;;;18.10;99.90;;;;;;4959134;29;20462;-69
2021/09/26 06:15:55;;;;;;;13.97;12.93;;;18.20;99.90;;;;;;4958960;29;20879;-69
2021/09/26 06:18:23;;;;;;;14.00;12.80;;;18.30;99.90;;;;;;4958948;29;20478;-70
2021/09/26 06:20:50;;;;;;;13.30;12.00;;;18.40;99.90;;;;;;4958665;28;20486;-70
2021/09/26 06:23:18;;;;;;;13.33;11.90;;;18.60;99.90;;;;;;4958877;29;20466;-69
2021/09/26 06:25:45;;;;;;;12.93;11.60;;;19.00;99.90;;;;;;4958875;28;20482;-67
2021/09/26 06:28:11;;;;;;;11.93;10.83;;;19.60;99.90;;;;;;4958973;28;20459;-69
2021/09/26 06:30:39;;;;;;;10.80;9.90;;;20.10;99.90;;;;;;4958694;29;20491;-68
2021/09/26 06:33:07;;;;;;;11.80;10.80;;;20.70;99.90;;;;;;4958738;29;20462;-69
2021/09/26 06:35:35;;;;;;;10.60;9.73;;;21.20;99.90;;;;;;4958585;29;20486;-68
2021/09/26 06:38:02;;;;;;;12.00;10.80;;;21.70;99.90;;;;;;4958720;29;20464;-68
2021/09/26 06:40:30;;;;;;;11.13;10.33;;;22.20;99.90;;;;;;4958533;29;20510;-70
2021/09/26 06:42:57;;;;;;;10.57;9.43;;;22.70;99.90;;;;;;4958090;29;20466;-67
2021/09/26 06:45:24;;;;;;;11.37;10.33;;;23.10;99.90;;;;;;4957673;28;20458;-67
2021/09/26 06:47:51;;;;;;;11.03;10.13;;;23.40;99.90;;;;;;4958613;29;20828;-67
2021/09/26 06:50:18;;;;;;;11.93;10.93;;;23.70;99.90;;;;;;4958290;29;20463;-67
2021/09/26 06:52:46;;;;;;;11.33;10.43;;;23.80;99.90;;;;;;4957952;29;20459;-67
2021/09/26 06:55:13;;;;;;;11.30;10.40;;;24.00;99.90;;;;;;4958664;29;20484;-67
2021/09/26 06:57:40;;;;;;;11.50;10.47;;;24.00;99.90;;;;;;4958286;29;20462;-67
2021/09/26 07:00:09;;;;;;;10.13;9.30;;;24.30;99.90;;;;;;4958111;28;20458;-67
2021/09/26 07:02:36;;;;;;;11.13;10.10;;;24.30;99.90;;;;;;4958080;29;20463;-67
2021/09/26 07:05:03;;;;;;;10.50;9.70;;;24.60;99.90;;;;;;4958509;28;20451;-67
2021/09/26 07:07:30;;;;;;;11.50;10.20;;;25.00;99.90;;;;;;4960228;28;20456;-67
2021/09/26 07:09:58;;;;;;;11.33;10.33;;;25.40;99.90;;;;;;4959688;29;20460;-68
2021/09/26 07:12:28;;;;;;;10.97;9.97;;;25.50;99.90;;;;;;4961029;29;20475;-65
2021/09/26 07:14:57;;;;;;;11.13;10.17;;;25.70;99.90;;;;;;4958520;28;20448;-65
2021/09/26 07:17:24;;;;;;;11.40;10.40;;;26.10;99.90;;;;;;4958152;29;20471;-65
2021/09/26 07:19:50;;;;;;;12.00;10.13;;;26.40;99.90;;;;;;4957972;29;20493;-65
2021/09/26 07:22:23;;;;;;;10.77;9.73;;;26.50;99.90;;;;;;4957720;28;20487;-65
2021/09/26 07:24:49;;;;;;;10.33;9.50;;;26.40;99.90;;;;;;4963464;29;20440;-65
2021/09/26 07:27:18;;;;;;;10.77;9.97;;;26.50;99.90;;;;;;4974988;29;20440;-65
2021/09/26 07:29:46;;;;;;;11.07;10.17;;;26.70;99.90;;;;;;4960212;28;20852;-65
2021/09/26 07:32:13;;;;;;;11.23;10.00;;;26.30;99.90;;;;;;4957893;28;20487;-65
2021/09/26 07:34:40;;;;;;;10.37;9.47;;;26.50;99.90;;;;;;4957490;28;20483;-65
2021/09/26 07:37:07;;;;;;;11.67;10.57;;;27.00;99.90;;;;;;4957279;29;20515;-65
2021/09/26 07:39:34;;;;;;;10.57;9.70;;;27.30;99.90;;;;;;4959203;29;20458;-65
2021/09/26 07:42:01;;;;;;;10.07;9.20;;;27.60;99.90;;;;;;4957105;29;20531;-65
2021/09/26 07:44:29;;;;;;;10.60;9.70;;;27.90;99.90;;;;;;4956941;28;20456;-65
2021/09/26 07:46:56;;;;;;;9.70;8.80;;;28.00;99.90;;;;;;4956934;29;20458;-66
2021/09/26 07:49:22;;;;;;;11.30;10.03;;;27.60;99.90;;;;;;4956727;28;20464;-66
2021/09/26 07:51:49;;;;;;;10.27;9.37;;;27.30;99.90;;;;;;4957637;29;20479;-65
2021/09/26 07:54:16;;;;;;;12.00;10.77;;;26.70;99.90;;;;;;4957146;29;20463;-65
2021/09/26 07:56:43;;;;;;;11.50;10.60;;;26.10;99.90;;;;;;4956358;28;20853;-65
2021/09/26 07:59:10;;;;;;;11.40;10.50;;;25.30;99.90;;;;;;4956514;29;20463;-66
2021/09/26 08:01:38;;;;;;;13.13;10.60;;;24.80;99.90;;;;;;4956644;29;20488;-66
2021/09/26 08:04:07;;;;;;;12.63;11.53;;;24.50;99.90;;;;;;4956859;28;20830;-66
2021/09/26 08:06:34;;;;;;;11.93;10.93;;;24.10;99.90;;;;;;4956812;28;20547;-65
2021/09/26 08:09:01;;;;;;;12.47;10.63;;;23.80;99.90;;;;;;4957238;28;20460;-66
2021/09/26 08:11:28;;;;;;;12.37;11.10;;;23.50;99.90;;;;;;4956936;29;20839;-68
2021/09/26 08:13:54;;;;;;;12.50;11.50;;;23.40;99.90;;;;;;4956887;29;20458;-67
2021/09/26 08:16:21;;;;;;;12.57;11.27;;;23.20;99.90;;;;;;4957273;28;20479;-68
2021/09/26 08:18:49;;;;;;;12.70;11.40;;;23.00;99.90;;;;;;4956814;29;20467;-68
2021/09/26 08:21:16;;;;;;;13.17;11.87;;;22.80;99.90;;;;;;4957009;29;20475;-67
2021/09/26 08:23:43;;;;;;;12.53;11.43;;;22.70;99.90;;;;;;4957050;29;20459;-68
2021/09/26 08:26:10;;;;;;;12.43;11.17;;;22.60;99.90;;;;;;4956430;29;20463;-68
2021/09/26 08:28:37;;;;;;;13.93;11.63;;;22.50;99.90;;;;;;4956216;29;20455;-67
2021/09/26 08:31:04;;;;;;;13.33;10.80;;;22.50;99.90;;;;;;4956173;29;20475;-66
2021/09/26 08:33:31;;;;;;;10.73;9.93;;;22.70;99.90;;;;;;4956369;29;20460;-67
2021/09/26 08:35:59;;;;;;;10.37;9.47;;;23.30;99.90;;;;;;4956455;28;20487;-68
2021/09/26 08:38:26;;;;;;;11.70;10.60;;;24.20;99.90;;;;;;4958187;29;20483;-67
2021/09/26 08:40:52;;;;;;;10.87;9.73;;;24.60;99.90;;;;;;4955645;28;20476;-68
2021/09/26 08:43:20;;;;;;;9.03;8.37;;;24.50;99.90;;;;;;4956239;29;20844;-68
2021/09/26 08:45:47;;;;;;;9.63;8.83;;;24.80;99.90;;;;;;4956274;29;20498;-68
2021/09/26 08:48:14;;;;;;;10.07;9.07;;;24.90;99.90;;;;;;4956050;29;20794;-68
2021/09/26 08:50:42;;;;;;;10.10;9.10;;;24.90;99.90;;;;;;4957181;29;20477;-69
2021/09/26 08:53:11;;;;;;;10.27;9.33;;;24.60;99.90;;;;;;4956263;29;20463;-68
2021/09/26 08:55:37;;;;;;;10.47;9.50;;;24.20;99.90;;;;;;4956025;29;20471;-67
2021/09/26 08:58:04;;;;;;;11.27;10.13;;;24.10;99.90;;;;;;4956065;28;20462;-68
2021/09/26 09:00:31;;;;;;;11.80;9.90;;;23.60;99.90;;;;;;4955873;29;20474;-68
2021/09/26 09:02:58;;;;;;;10.63;9.60;;;23.90;99.90;;;;;;4956628;29;20440;-67
2021/09/26 09:05:30;;;;;;;9.67;8.73;;;24.20;99.90;;;;;;4956047;28;20452;-69
2021/09/26 09:08:11;;;;;;;10.93;9.90;;;24.40;99.90;;;;;;4956386;28;20462;-67
2021/09/26 09:10:39;;;;;;;12.73;8.90;;;24.30;99.90;;;;;;4960045;28;20485;-68
2021/09/26 09:13:06;;;;;;;9.40;8.60;;;24.50;99.90;;;;;;4963354;28;20462;-68
2021/09/26 09:15:33;;;;;;;9.83;8.67;;;24.70;99.90;;;;;;4966923;29;20459;-68
2021/09/26 09:18:02;;;;;;;11.77;8.57;;;24.80;99.90;;;;;;4963307;29;20460;-68
2021/09/26 09:20:30;;;;;;;9.30;8.50;;;24.90;99.90;;;;;;4959816;29;21084;-67
2021/09/26 09:22:59;;;;;;;9.67;8.27;;;24.90;99.90;;;;;;4959751;29;20459;-70
2021/09/26 09:25:37;;;;;;;11.03;8.77;;;24.70;99.90;;;;;;4959294;29;20949;-69
2021/09/26 09:28:05;;;;;;;12.57;9.53;;;24.50;99.90;;;;;;4960386;29;20444;-69
2021/09/26 09:30:34;;;;;;;8.97;8.17;;;24.30;99.90;;;;;;4960917;29;20475;-70
2021/09/26 09:33:02;;;;;;;9.40;8.50;;;24.30;99.90;;;;;;4960655;29;20455;-70
2021/09/26 09:35:34;;;;;;;9.10;8.30;;;24.20;99.90;;;;;;4959425;29;20459;-70
2021/09/26 09:38:01;;;;;;;9.10;8.23;;;24.10;99.90;;;;;;4959787;28;20444;-72
2021/09/26 09:40:30;;;;;;;9.77;8.77;;;24.00;99.90;;;;;;4959576;29;20463;-70
2021/09/26 09:42:57;;;;;;;9.60;8.70;;;23.80;99.90;;;;;;4959464;28;20943;-71
2021/09/26 09:45:26;;;;;;;8.53;7.57;;;23.80;99.90;;;;;;4960379;28;20455;-70
2021/09/26 09:47:57;;;;;;;9.10;8.20;;;23.60;99.90;;;;;;4959228;29;20458;-68
2021/09/26 09:50:29;;;;;;;12.17;8.73;;;23.60;99.90;;;;;;4958745;29;20466;-70
2021/09/26 09:52:56;;;;;;;11.77;8.23;;;23.50;99.90;;;;;;4960131;29;20440;-71
2021/09/26 09:55:26;;;;;;;9.10;8.30;;;23.40;99.90;;;;;;4964797;29;20452;-70
2021/09/26 09:57:54;;;;;;;13.97;9.13;;;23.50;99.90;;;;;;4962321;28;20475;-70
2021/09/26 10:00:23;;;;;;;8.67;7.83;;;23.50;99.90;;;;;;4958953;29;20455;-70
2021/09/26 10:02:50;;;;;;;8.23;7.57;;;23.60;99.90;;;;;;4959048;29;20436;-70
2021/09/26 10:05:33;;;;;;;9.77;8.80;;;23.60;99.90;;;;;;4958530;29;20934;-70
2021/09/26 10:07:59;;;;;;;9.63;8.83;;;23.70;99.90;;;;;;4958330;28;20455;-70
2021/09/26 10:10:33;;;;;;;14.17;10.47;;;23.80;99.90;;;;;;4958469;28;20466;-70
2021/09/26 10:13:12;;;;;;;19.27;16.40;;;23.80;99.90;;;;;;4958655;29;20455;-70
2021/09/26 10:15:40;;;;;;;14.17;12.37;;;23.70;99.90;;;;;;4958417;28;20460;-69
2021/09/26 10:18:07;;;;;;;15.30;13.90;;;23.70;99.90;;;;;;4958691;29;20489;-68
2021/09/26 10:20:34;;;;;;;12.53;11.53;;;23.60;99.90;;;;;;4957402;28;20479;-70
2021/09/26 10:23:02;;;;;;;15.40;14.00;;;23.40;99.90;;;;;;4958700;29;20459;-70
2021/09/26 10:25:29;;;;;;;20.77;18.63;;;23.40;99.90;;;;;;4958835;29;20459;-70
2021/09/26 10:27:56;;;;;;;20.00;18.20;;;23.30;99.90;;;;;;4958632;29;20451;-69
2021/09/26 10:30:25;;;;;;;11.47;10.27;;;23.20;99.90;;;;;;4958464;29;20550;-69
2021/09/26 10:32:54;;;;;;;12.73;11.73;;;22.90;99.90;;;;;;4958213;28;20965;-69
2021/09/26 10:35:21;;;;;;;11.77;10.87;;;22.70;99.90;;;;;;4958322;29;20459;-69
2021/09/26 10:37:48;;;;;;;14.17;13.07;;;22.50;99.90;;;;;;4958332;29;20480;-69
2021/09/26 10:40:16;;;;;;;13.73;12.30;;;22.40;99.90;;;;;;4958251;29;20456;-69
2021/09/26 10:42:43;;;;;;;13.00;11.00;;;22.30;99.90;;;;;;4964326;28;20943;-70
2021/09/26 10:45:10;;;;;;;11.90;11.00;;;22.10;99.90;;;;;;4964946;29;20493;-70
2021/09/26 10:47:40;;;;;;;12.60;11.50;;;21.90;99.90;;;;;;4960058;28;20459;-70
2021/09/26 10:50:12;;;;;;;12.07;10.77;;;21.80;99.90;;;;;;4958243;29;20793;-70
2021/09/26 10:52:41;;;;;;;15.20;13.90;;;21.70;99.90;;;;;;4967374;29;20440;-70
2021/09/26 10:55:32;;;;;;;16.27;14.83;;;21.70;99.90;;;;;;4973528;28;20935;-70
2021/09/26 10:58:18;;;;;;;14.03;12.73;;;21.60;99.90;;;;;;4943537;28;20483;-70
2021/09/26 11:00:55;;;;;;;13.83;12.70;;;21.50;99.90;;;;;;4958032;28;20483;-70
2021/09/26 11:03:34;;;;;;;13.10;11.80;;;21.40;99.90;;;;;;4957768;29;20440;-70
2021/09/26 11:06:25;;;;;;;14.50;13.10;;;21.30;99.90;;;;;;4957295;28;20451;-70
2021/09/26 11:08:56;;;;;;;18.00;16.40;;;21.30;99.90;;;;;;4957163;28;20951;-70
2021/09/26 11:11:40;;;;;;;17.13;15.37;;;21.30;99.90;;;;;;4957498;28;20485;-70
2021/09/26 11:14:08;;;;;;;15.90;14.50;;;21.30;99.90;;;;;;4957057;29;20943;-70
2021/09/26 11:16:53;;;;;;;13.00;11.93;;;21.30;99.90;;;;;;4957207;29;20479;-70
2021/09/26 11:19:22;;;;;;;12.57;11.57;;;21.40;99.90;;;;;;4957314;29;20446;-70
2021/09/26 11:22:17;;;;;;;13.97;12.87;;;21.30;99.90;;;;;;4957740;28;20487;-70
2021/09/26 11:24:59;;;;;;;12.33;11.47;;;21.20;99.90;;;;;;4957414;29;20455;-70
2021/09/26 11:27:38;;;;;;;13.70;12.50;;;21.20;99.90;;;;;;4957537;29;20900;-70
2021/09/26 11:30:28;;;;;;;11.10;10.20;;;21.20;99.90;;;;;;4959829;29;20522;-70
2021/09/26 11:33:05;;;;;;;11.50;10.60;;;21.20;99.90;;;;;;4958366;28;20444;-70
2021/09/26 11:35:36;;;;;;;13.90;12.80;;;21.20;99.90;;;;;;4957284;29;20446;-70
2021/09/26 11:38:06;;;;;;;13.90;12.57;;;21.30;99.90;;;;;;4957085;29;20484;-70
2021/09/26 11:40:54;;;;;;;13.87;11.97;;;21.30;99.90;;;;;;4956906;29;21044;-70
2021/09/26 11:43:23;;;;;;;14.03;12.90;;;21.30;99.90;;;;;;4957192;29;20448;-70
2021/09/26 11:45:50;;;;;;;13.27;12.20;;;21.30;99.90;;;;;;4957131;29;20455;-70
2021/09/26 11:48:18;;;;;;;13.27;12.17;;;21.30;99.90;;;;;;4956831;28;20459;-70
2021/09/26 11:50:47;;;;;;;12.73;11.83;;;21.30;99.90;;;;;;4959484;28;20479;-70
2021/09/26 11:53:17;;;;;;;12.70;11.70;;;21.30;99.90;;;;;;4965500;29;20483;-70
2021/09/26 11:55:44;;;;;;;12.90;11.70;;;21.20;99.90;;;;;;4965050;29;20495;-70
2021/09/26 11:58:12;;;;;;;13.77;12.67;;;21.20;99.90;;;;;;4964773;29;20483;-71
2021/09/26 12:00:42;;;;;;;11.83;10.93;;;21.20;99.90;;;;;;4958462;28;20494;-70
2021/09/26 12:03:16;;;;;;;13.87;12.80;;;21.20;99.90;;;;;;4957630;29;20440;-70
2021/09/26 12:05:44;;;;;;;12.83;11.83;;;21.10;99.90;;;;;;4959197;29;20430;-70
2021/09/26 12:08:13;;;;;;;14.10;11.97;;;21.10;99.90;;;;;;4960303;29;20447;-70
2021/09/26 12:10:41;;;;;;;13.33;12.33;;;21.10;99.90;;;;;;4958593;29;20475;-71
2021/09/26 12:13:12;;;;;;;12.70;11.70;;;21.10;99.90;;;;;;4956937;28;20824;-71
2021/09/26 12:15:39;;;;;;;12.83;11.83;;;21.20;99.90;;;;;;4957221;29;20460;-70
2021/09/26 12:18:06;;;;;;;12.63;11.63;;;21.30;99.90;;;;;;4956812;29;20487;-70
2021/09/26 12:20:33;;;;;;;13.03;11.97;;;21.30;99.90;;;;;;4956859;28;20459;-70
2021/09/26 12:23:01;;;;;;;13.03;11.90;;;21.40;99.90;;;;;;4957147;29;20463;-71
2021/09/26 12:25:33;;;;;;;13.43;12.30;;;21.70;99.90;;;;;;4956767;28;20459;-70
2021/09/26 12:28:03;;;;;;;11.93;10.93;;;21.80;99.90;;;;;;4956381;29;20836;-69
2021/09/26 12:30:32;;;;;;;11.93;11.03;;;22.20;99.90;;;;;;4956460;29;20452;-71
2021/09/26 12:33:01;;;;;;;12.73;11.57;;;22.60;99.90;;;;;;4956838;29;20463;-70
2021/09/26 12:35:32;;;;;;;10.43;9.63;;;23.00;99.90;;;;;;4956365;28;20461;-69
2021/09/26 12:38:01;;;;;;;12.10;10.80;;;23.30;99.90;;;;;;4956197;29;20468;-69
2021/09/26 12:40:33;;;;;;;10.90;9.97;;;23.60;99.90;;;;;;4956332;29;20462;-69
2021/09/26 12:43:03;;;;;;;10.53;9.67;;;24.10;99.90;;;;;;4956403;29;20455;-69
2021/09/26 12:45:39;;;;;;;10.43;9.67;;;24.30;99.90;;;;;;4956568;28;20456;-69
2021/09/26 12:48:07;;;;;;;10.57;9.57;;;24.70;99.90;;;;;;4956700;29;20442;-70
2021/09/26 12:50:40;;;;;;;10.47;9.70;;;25.10;99.90;;;;;;4956221;29;20459;-69
2021/09/26 12:53:09;;;;;;;10.40;9.70;;;25.60;99.90;;;;;;4956727;29;20804;-69
2021/09/26 12:55:38;;;;;;;11.27;10.33;;;26.00;99.90;;;;;;4955959;29;20462;-70
2021/09/26 12:58:05;;;;;;;9.53;8.87;;;26.30;99.90;;;;;;4956127;29;20502;-69
2021/09/26 13:00:34;;;;;;;9.93;9.03;;;26.30;99.90;;;;;;4955934;29;20502;-69
2021/09/26 13:03:04;;;;;;;10.20;9.50;;;26.10;99.90;;;;;;4956026;29;20444;-69
2021/09/26 13:05:33;;;;;;;10.03;9.30;;;26.00;99.90;;;;;;4956134;29;20463;-69
2021/09/26 13:08:04;;;;;;;9.30;8.50;;;25.90;99.90;;;;;;4955869;29;20451;-69
2021/09/26 13:10:32;;;;;;;10.20;9.50;;;25.70;99.90;;;;;;4955774;29;20791;-69
2021/09/26 13:13:10;;;;;;;9.37;8.77;;;25.50;99.90;;;;;;4955970;28;20459;-69
2021/09/26 13:15:38;;;;;;;10.27;9.47;;;25.40;99.90;;;;;;4955925;29;20439;-68
2021/09/26 13:18:17;;;;;;;10.93;10.07;;;25.40;99.90;;;;;;4955834;29;20480;-69
2021/09/26 13:20:45;;;;;;;9.80;9.10;;;25.30;99.90;;;;;;4955828;29;20479;-68
2021/09/26 13:23:26;;;;;;;10.37;9.67;;;25.00;99.90;;;;;;4956204;29;20456;-69
2021/09/26 13:25:56;;;;;;;10.97;10.10;;;24.90;99.90;;;;;;4956048;29;20866;-68
2021/09/26 13:28:26;;;;;;;11.23;10.33;;;24.80;99.90;;;;;;4955968;29;20444;-69
2021/09/26 13:31:07;;;;;;;11.67;10.77;;;24.60;99.90;;;;;;4956991;29;20898;-68
2021/09/26 13:33:36;;;;;;;12.10;11.00;;;24.60;99.90;;;;;;4961914;29;20423;-70
2021/09/26 13:36:08;;;;;;;11.10;10.27;;;24.50;99.90;;;;;;4976488;29;20487;-70
2021/09/26 13:38:35;;;;;;;10.23;9.43;;;24.60;99.90;;;;;;4957370;29;21009;-70
2021/09/26 13:41:20;;;;;;;11.70;10.70;;;24.50;99.90;;;;;;4955620;29;20482;-70
2021/09/26 13:44:00;;;;;;;10.30;9.53;;;24.50;99.90;;;;;;4955929;29;20440;-70
2021/09/26 13:46:27;;;;;;;10.27;9.57;;;24.70;99.90;;;;;;4956552;29;20435;-70
2021/09/26 13:48:55;;;;;;;10.40;9.60;;;24.70;99.90;;;;;;4955476;29;20455;-70
2021/09/26 13:51:22;;;;;;;10.30;9.60;;;24.60;99.90;;;;;;4956038;29;20513;-70
2021/09/26 13:53:49;;;;;;;10.97;10.20;;;24.70;99.90;;;;;;4956044;29;20456;-70
2021/09/26 13:56:16;;;;;;;10.20;9.50;;;24.70;99.90;;;;;;4959290;28;20463;-70
2021/09/26 13:58:43;;;;;;;10.90;9.83;;;24.70;99.90;;;;;;4959413;29;20510;-70
2021/09/26 14:01:14;;;;;;;10.57;9.77;;;24.60;99.90;;;;;;4959234;29;20487;-70
2021/09/26 14:03:41;;;;;;;10.97;9.93;;;24.60;99.90;;;;;;4959204;29;20444;-70
2021/09/26 14:06:08;;;;;;;10.87;10.07;;;24.60;99.90;;;;;;4959033;29;20455;-70
2021/09/26 14:08:35;;;;;;;9.97;9.10;;;24.70;99.90;;;;;;4959078;29;20455;-71
2021/09/26 14:11:02;;;;;;;10.47;9.77;;;24.80;99.90;;;;;;4958964;29;20479;-69
2021/09/26 14:13:30;;;;;;;10.40;9.50;;;24.80;99.90;;;;;;4959382;28;20487;-70
2021/09/26 14:15:57;;;;;;;9.23;8.63;;;24.90;99.90;;;;;;4959102;29;20474;-70
2021/09/26 14:18:26;;;;;;;10.13;9.43;;;24.90;99.90;;;;;;4958133;28;21006;-70
2021/09/26 14:20:53;;;;;;;10.13;9.23;;;24.80;99.90;;;;;;4958793;29;20919;-70
2021/09/26 14:23:19;;;;;;;9.90;9.17;;;24.80;99.90;;;;;;4958823;29;20464;-70
2021/09/26 14:25:46;;;;;;;10.07;9.20;;;24.70;99.90;;;;;;4958817;29;20455;-70
2021/09/26 14:28:13;;;;;;;9.70;8.90;;;24.70;99.90;;;;;;4958767;29;20456;-70
2021/09/26 14:30:41;;;;;;;9.20;8.60;;;24.70;99.90;;;;;;4958476;28;21016;-70
2021/09/26 14:33:08;;;;;;;9.00;8.40;;;24.60;99.90;;;;;;4958595;29;20459;-70
2021/09/26 14:35:37;;;;;;;9.70;8.97;;;24.60;99.90;;;;;;4958805;29;20459;-70
2021/09/26 14:38:06;;;;;;;10.50;9.70;;;24.50;99.90;;;;;;4958586;29;20483;-70
2021/09/26 14:40:34;;;;;;;10.47;9.63;;;24.60;99.90;;;;;;4958766;28;20452;-70
2021/09/26 14:43:01;;;;;;;9.57;8.87;;;24.60;99.90;;;;;;4958402;29;20947;-70
2021/09/26 14:45:29;;;;;;;9.30;8.40;;;24.60;99.90;;;;;;4958802;29;20452;-69
2021/09/26 14:47:56;;;;;;;9.57;8.77;;;24.50;99.90;;;;;;4958142;28;20474;-70
2021/09/26 14:50:23;;;;;;;9.93;9.23;;;24.10;99.90;;;;;;4958179;29;20482;-70
2021/09/26 14:52:51;;;;;;;10.50;9.60;;;23.90;99.90;;;;;;4958002;28;20459;-72
2021/09/26 14:55:22;;;;;;;10.13;9.33;;;23.60;99.90;;;;;;4958097;29;20459;-71
2021/09/26 14:57:49;;;;;;;9.97;9.27;;;23.40;99.90;;;;;;4958237;29;20479;-70
2021/09/26 15:00:17;;;;;;;9.73;9.00;;;23.30;99.90;;;;;;4958373;28;20466;-69
2021/09/26 15:02:45;;;;;;;10.03;9.27;;;23.20;99.90;;;;;;4958164;29;20451;-71
2021/09/26 15:05:13;;;;;;;9.47;8.70;;;22.90;99.90;;;;;;4958054;29;20459;-68
2021/09/26 15:07:40;;;;;;;10.63;9.67;;;22.80;99.90;;;;;;4956956;28;20455;-69
2021/09/26 15:10:10;;;;;;;10.20;9.50;;;22.70;99.90;;;;;;4957464;29;20452;-69
2021/09/26 15:12:39;;;;;;;10.70;9.90;;;22.60;99.90;;;;;;4957781;29;20884;-69
2021/09/26 15:15:09;;;;;;;10.27;9.50;;;22.40;99.90;;;;;;4957030;29;20966;-69
2021/09/26 15:17:35;;;;;;;10.80;10.00;;;22.30;99.90;;;;;;4957504;29;21038;-69
2021/09/26 15:20:03;;;;;;;9.53;8.83;;;22.20;99.90;;;;;;4957609;28;20459;-69
2021/09/26 15:22:29;;;;;;;11.13;10.33;;;22.10;99.90;;;;;;4957521;29;21010;-69
2021/09/26 15:24:56;;;;;;;9.70;9.00;;;22.00;99.90;;;;;;4957639;28;20463;-69
2021/09/26 15:27:24;;;;;;;11.47;10.57;;;21.80;99.90;;;;;;4957651;29;20452;-70
2021/09/26 15:29:51;;;;;;;9.10;8.20;;;21.80;99.90;;;;;;4956921;29;20939;-66
2021/09/26 15:32:18;;;;;;;10.97;10.00;;;21.70;99.90;;;;;;4957024;29;20476;-67
2021/09/26 15:34:45;;;;;;;9.20;8.50;;;21.80;99.90;;;;;;4957246;29;20503;-68
2021/09/26 15:37:12;;;;;;;9.97;9.17;;;21.80;99.90;;;;;;4956875;29;20460;-68
2021/09/26 15:39:39;;;;;;;8.90;8.30;;;21.60;99.90;;;;;;4957097;28;20838;-67
2021/09/26 15:42:06;;;;;;;10.30;9.40;;;21.70;99.90;;;;;;4956834;29;20476;-67
2021/09/26 15:44:34;;;;;;;9.80;9.10;;;21.60;99.90;;;;;;4957013;28;20463;-68
2021/09/26 15:47:01;;;;;;;10.50;9.60;;;21.70;99.90;;;;;;4956739;29;20456;-68
2021/09/26 15:49:29;;;;;;;10.70;9.80;;;21.70;99.90;;;;;;4956938;28;20455;-67
2021/09/26 15:51:57;;;;;;;10.43;9.53;;;21.70;99.90;;;;;;4957340;29;20476;-67
2021/09/26 15:54:24;;;;;;;9.63;8.97;;;21.70;99.90;;;;;;4956964;29;20960;-68
2021/09/26 15:56:51;;;;;;;10.17;9.20;;;21.70;99.90;;;;;;4957339;29;20460;-71
2021/09/26 15:59:18;;;;;;;9.33;8.67;;;21.70;99.90;;;;;;4957096;29;20479;-73
2021/09/26 16:01:46;;;;;;;10.20;9.40;;;21.70;99.90;;;;;;4956483;29;20487;-73
2021/09/26 16:04:14;;;;;;;10.03;9.13;;;21.70;99.90;;;;;;4956664;29;20785;-73
2021/09/26 16:06:41;;;;;;;11.07;10.17;;;21.70;99.90;;;;;;4956428;29;20523;-73
2021/09/26 16:09:08;;;;;;;11.40;10.50;;;21.70;99.90;;;;;;4956676;29;20483;-74
2021/09/26 16:11:35;;;;;;;10.20;9.50;;;21.60;99.90;;;;;;4956935;29;20479;-74
2021/09/26 16:14:02;;;;;;;11.27;10.23;;;21.60;99.90;;;;;;4964692;29;20459;-71
2021/09/26 16:16:30;;;;;;;11.43;10.60;;;21.50;99.90;;;;;;4976017;29;20451;-71
2021/09/26 16:18:58;;;;;;;11.57;10.53;;;21.50;99.90;;;;;;4956117;28;21089;-70
2021/09/26 16:21:25;;;;;;;10.93;10.10;;;21.50;99.90;;;;;;4956294;29;20475;-70
2021/09/26 16:23:51;;;;;;;11.23;10.20;;;21.40;99.90;;;;;;4956474;29;20455;-70
2021/09/26 16:26:19;;;;;;;11.10;10.33;;;21.40;99.90;;;;;;4956778;28;20486;-70
2021/09/26 16:28:46;;;;;;;12.03;11.00;;;21.30;99.90;;;;;;4956234;28;20488;-70
2021/09/26 16:31:14;;;;;;;11.33;10.40;;;21.30;99.90;;;;;;4956038;29;20484;-69
2021/09/26 16:33:44;;;;;;;12.00;10.73;;;21.30;99.90;;;;;;4956739;28;20460;-66
2021/09/26 16:36:14;;;;;;;12.77;11.77;;;21.30;99.90;;;;;;4956337;29;20466;-66
2021/09/26 16:38:41;;;;;;;11.53;10.73;;;21.20;99.90;;;;;;4956716;29;20526;-68
2021/09/26 16:41:08;;;;;;;12.73;11.73;;;21.20;99.90;;;;;;4956182;29;20479;-67